地図

経路データ

SID SEASON NUMBER BASIN SUBBASIN NAME ISO_TIME NATURE LAT LON WMO_WIND WMO_PRES WMO_AGENCY TRACK_TYPE DIST2LAND LANDFALL IFLAG USA_AGENCY USA_ATCF_ID USA_LAT USA_LON USA_RECORD USA_STATUS USA_WIND USA_PRES USA_SSHS USA_R34_NE USA_R34_SE USA_R34_SW USA_R34_NW USA_R50_NE USA_R50_SE USA_R50_SW USA_R50_NW USA_R64_NE USA_R64_SE USA_R64_SW USA_R64_NW USA_POCI USA_ROCI USA_RMW USA_EYE TOKYO_LAT TOKYO_LON TOKYO_GRADE TOKYO_WIND TOKYO_PRES TOKYO_R50_DIR TOKYO_R50_LONG TOKYO_R50_SHORT TOKYO_R30_DIR TOKYO_R30_LONG TOKYO_R30_SHORT TOKYO_LAND CMA_LAT CMA_LON CMA_CAT CMA_WIND CMA_PRES HKO_LAT HKO_LON HKO_CAT HKO_WIND HKO_PRES NEWDELHI_LAT NEWDELHI_LON NEWDELHI_GRADE NEWDELHI_WIND NEWDELHI_PRES NEWDELHI_CI NEWDELHI_DP NEWDELHI_POCI REUNION_LAT REUNION_LON REUNION_TYPE REUNION_WIND REUNION_PRES REUNION_TNUM REUNION_CI REUNION_RMW REUNION_R34_NE REUNION_R34_SE REUNION_R34_SW REUNION_R34_NW REUNION_R50_NE REUNION_R50_SE REUNION_R50_SW REUNION_R50_NW REUNION_R64_NE REUNION_R64_SE REUNION_R64_SW REUNION_R64_NW BOM_LAT BOM_LON BOM_TYPE BOM_WIND BOM_PRES BOM_TNUM BOM_CI BOM_RMW BOM_R34_NE BOM_R34_SE BOM_R34_SW BOM_R34_NW BOM_R50_NE BOM_R50_SE BOM_R50_SW BOM_R50_NW BOM_R64_NE BOM_R64_SE BOM_R64_SW BOM_R64_NW BOM_ROCI BOM_POCI BOM_EYE BOM_POS_METHOD BOM_PRES_METHOD NADI_LAT NADI_LON NADI_CAT NADI_WIND NADI_PRES WELLINGTON_LAT WELLINGTON_LON WELLINGTON_WIND WELLINGTON_PRES DS824_LAT DS824_LON DS824_STAGE DS824_WIND DS824_PRES TD9636_LAT TD9636_LON TD9636_STAGE TD9636_WIND TD9636_PRES TD9635_LAT TD9635_LON TD9635_WIND TD9635_PRES TD9635_ROCI NEUMANN_LAT NEUMANN_LON NEUMANN_CLASS NEUMANN_WIND NEUMANN_PRES MLC_LAT MLC_LON MLC_CLASS MLC_WIND MLC_PRES USA_GUST BOM_GUST BOM_GUST_PER REUNION_GUST REUNION_GUST_PER USA_SEAHGT USA_SEARAD_NE USA_SEARAD_SE USA_SEARAD_SW USA_SEARAD_NW STORM_SPEED STORM_DIR
1909245N15084 1909 45 NI BB NOT_NAMED 1909-09-02 00:00:00 TS 14.8000 84.1000 main 278 264 _________O____ -1 14.8000 84.1000 TC 30 4 278
1909245N15084 1909 45 NI BB NOT_NAMED 1909-09-02 03:00:00 TS 14.8267 83.8917 main 264 235 _________PO___ -1 14.8401 83.7875 TC 30 14.8000 84.1000 1 5 281
1909245N15084 1909 45 NI BB NOT_NAMED 1909-09-02 06:00:00 TS 14.8882 83.6307 main 235 214 _________OP___ -1 14.9000 83.5000 TC 30 14.8705 83.8266 1 5 286
1909245N15084 1909 45 NI BB NOT_NAMED 1909-09-02 09:00:00 TS 14.9711 83.3796 main 214 193 _________PP___ -1 14.9924 83.2500 TC 30 14.9427 83.5525 1 5 290
1909245N15084 1909 45 NI BB NOT_NAMED 1909-09-02 12:00:00 TS 15.0593 83.1386 main 188 178 _________OP___ -1 15.1000 83.0000 TC 30 15.0185 83.2772 1 6 289
1909245N15084 1909 45 NI BB NOT_NAMED 1909-09-02 15:00:00 TS 15.1538 82.8425 main 163 153 _________PO___ -1 15.2076 82.6850 TC 30 15.1000 83.0000 1 6 288
1909245N15084 1909 45 NI BB NOT_NAMED 1909-09-02 18:00:00 TS 15.2436 82.5621 main 153 129 _________OP___ -1 15.3000 82.4000 TC 30 15.1872 82.7241 1 5 289
1909245N15084 1909 45 NI BB NOT_NAMED 1909-09-02 21:00:00 TS 15.3188 82.3363 main 129 114 _________PP___ -1 15.3650 82.2050 TC 30 15.2726 82.4676 1 4 289
1909245N15084 1909 45 NI BB NOT_NAMED 1909-09-03 00:00:00 TS 15.3733 82.1761 main 114 109 _________OP___ -1 15.4000 82.1000 TC 30 15.3466 82.2523 1 3 290
1909245N15084 1909 45 NI BB NOT_NAMED 1909-09-03 03:00:00 TS 15.4037 82.0887 main 109 109 _________PO___ -1 15.4075 82.0775 TC 30 15.4000 82.1000 1 1 290
1909245N15084 1909 45 NI BB NOT_NAMED 1909-09-03 06:00:00 TS 15.4107 82.0676 main 109 109 _________OP___ -1 15.4000 82.1000 TC 30 15.4214 82.0352 1 0 0
1909245N15084 1909 45 NI BB NOT_NAMED 1909-09-03 09:00:00 TS 15.4112 82.0662 main 109 109 _________PP___ -1 15.4000 82.1000 TC 30 15.4224 82.0324 1 0 0
1909245N15084 1909 45 NI BB NOT_NAMED 1909-09-03 12:00:00 TS 15.4061 82.0817 main 109 109 _________OP___ -1 15.4000 82.1000 TC 30 15.4121 82.0634 1 0 106
1909245N15084 1909 45 NI BB NOT_NAMED 1909-09-03 15:00:00 TS 15.4000 82.1000 main 109 109 _________PO___ -1 15.4000 82.1000 TC 30 15.4000 82.1000 1 1 118
1909245N15084 1909 45 NI BB NOT_NAMED 1909-09-03 18:00:00 TS 15.3796 82.1323 main 109 109 _________OP___ -1 15.4000 82.1000 TC 30 15.3591 82.1647 1 1 123
1909245N15084 1909 45 NI BB NOT_NAMED 1909-09-03 21:00:00 TS 15.3435 82.1896 main 124 114 _________PP___ -1 15.3624 82.1598 TC 30 15.3245 82.2193 1 0 0
1909245N15084 1909 45 NI BB NOT_NAMED 1909-09-04 00:00:00 TS 15.3638 82.1572 main 114 92 _________OP___ -1 15.4000 82.1000 TC 30 15.3277 82.2144 1 3 303
1909245N15084 1909 45 NI BB NOT_NAMED 1909-09-04 03:00:00 TS 15.5063 81.9301 main 92 54 _________PO___ -1 15.6126 81.7602 TC 30 15.4000 82.1000 1 7 303
1909245N15084 1909 45 NI BB NOT_NAMED 1909-09-04 06:00:00 TS 15.7413 81.5537 main 54 0 _________OP___ -1 15.9000 81.3000 TC 30 15.5827 81.8075 1 9 303
1909245N15084 1909 45 NI BB NOT_NAMED 1909-09-04 09:00:00 TS 15.9953 81.1492 main 0 0 _________PP___ -1 16.1575 80.8925 TC 30 15.8332 81.4059 1 10 303
1909245N15084 1909 45 NI BB NOT_NAMED 1909-09-04 12:00:00 TS 16.2585 80.7256 main 0 0 _________OP___ -1 16.4000 80.5000 TC 30 16.1171 80.9512 1 9 302
1909245N15084 1909 45 NI BB NOT_NAMED 1909-09-04 15:00:00 TS 16.5000 80.3212 main 0 0 _________PO___ -1 16.5999 80.1423 TC 30 16.4000 80.5000 1 9 302
1909245N15084 1909 45 NI BB NOT_NAMED 1909-09-04 18:00:00 TS 16.7344 79.9395 main 0 0 _________OP___ -1 16.8000 79.8000 TC 30 16.6689 80.0791 1 9 304
1909245N15084 1909 45 NI BB NOT_NAMED 1909-09-04 21:00:00 TS 17.0027 79.5391 main 0 0 _________PP___ -1 17.0801 79.3977 TC 30 16.9253 79.6805 1 8 305
1909245N15084 1909 45 NI BB NOT_NAMED 1909-09-05 00:00:00 TS 17.2220 79.2208 main 0 0 _________OP___ -1 17.3000 79.1000 TC 30 17.1439 79.3416 1 5 305
1909245N15084 1909 45 NI BB NOT_NAMED 1909-09-05 03:00:00 TS 17.3187 79.0737 main 0 0 _________PO___ -1 17.3374 79.0473 TC 30 17.3000 79.1000 1 2 304
1909245N15084 1909 45 NI BB NOT_NAMED 1909-09-05 06:00:00 TS 17.3322 79.0494 main 0 0 _________OP___ -1 17.3000 79.1000 TC 30 17.3643 78.9989 1 0 0
1909245N15084 1909 45 NI BB NOT_NAMED 1909-09-05 09:00:00 TS 17.3335 79.0472 main 0 0 _________PP___ -1 17.3000 79.1000 TC 30 17.3671 78.9945 1 0 0
1909245N15084 1909 45 NI BB NOT_NAMED 1909-09-05 12:00:00 TS 17.3182 79.0714 main 0 0 _________OP___ -1 17.3000 79.1000 TC 30 17.3364 79.0428 1 1 119
1909245N15084 1909 45 NI BB NOT_NAMED 1909-09-05 15:00:00 TS 17.3000 79.1000 main 0 0 _________PO___ -1 17.3000 79.1000 TC 30 17.3000 79.1000 1 1 121
1909245N15084 1909 45 NI BB NOT_NAMED 1909-09-05 18:00:00 TS 17.2565 79.1802 main 0 0 _________OP___ -1 17.3000 79.1000 TC 30 17.2131 79.2603 1 2 120
1909245N15084 1909 45 NI BB NOT_NAMED 1909-09-05 21:00:00 TS 17.1895 79.3039 main 0 0 _________PP___ -1 17.2396 79.2119 TC 30 17.1394 79.3958 1 1 119
1909245N15084 1909 45 NI BB NOT_NAMED 1909-09-06 00:00:00 TS 17.2231 79.2418 main 0 0 _________OP___ -1 17.3000 79.1000 TC 30 17.1461 79.3835 1 5 299
1909245N15084 1909 45 NI BB NOT_NAMED 1909-09-06 03:00:00 TS 17.4510 78.8183 main 0 0 _________PO___ -1 17.6020 78.5367 TC 30 17.3000 79.1000 1 14 299
1909245N15084 1909 45 NI AS NOT_NAMED 1909-09-06 06:00:00 TS 17.8924 77.9971 main 0 0 _________OP___ -1 18.1000 77.6000 TC 30 17.6848 78.3942 1 21 299
1909245N15084 1909 45 NI AS NOT_NAMED 1909-09-06 09:00:00 TS 18.4775 76.9038 main 0 0 _________PP___ -1 18.7435 76.3964 TC 30 18.2114 77.4112 1 25 299
1909245N15084 1909 45 NI AS NOT_NAMED 1909-09-06 12:00:00 TS 19.1034 75.6859 main 0 0 _________OP___ -1 19.4000 75.1000 TC 30 18.8067 76.2719 1 25 298
1909245N15084 1909 45 NI AS NOT_NAMED 1909-09-06 15:00:00 TS 19.6357 74.5555 main 0 0 _________PO___ -1 19.8714 74.0110 TC 30 19.4000 75.1000 1 23 296
1909245N15084 1909 45 NI AS NOT_NAMED 1909-09-06 18:00:00 TS 20.1142 73.4753 main 0 0 _________OP___ -1 20.3000 73.0000 TC 30 19.9283 73.9507 1 23 296
1909245N15084 1909 45 NI AS NOT_NAMED 1909-09-06 21:00:00 TS 20.6373 72.3475 main 53 0 _________PP___ -1 20.8382 71.8811 TC 30 20.4364 72.8139 1 22 297
1909245N15084 1909 45 NI AS NOT_NAMED 1909-09-07 00:00:00 TS 21.1003 71.3973 main 0 0 _________OP___ -1 21.3000 71.0000 TC 30 20.9007 71.7947 1 16 298
1909245N15084 1909 45 NI AS NOT_NAMED 1909-09-07 03:00:00 TS 21.4145 70.8107 main 0 0 _________PO___ -1 21.5289 70.6213 TC 30 21.3000 71.0000 1 10 304
1909245N15084 1909 45 NI AS NOT_NAMED 1909-09-07 06:00:00 TS 21.6472 70.5155 main 0 0 _________OP___ -1 21.7000 70.5000 TC 30 21.5945 70.5310 1 7 316
1909245N15084 1909 45 NI AS NOT_NAMED 1909-09-07 09:00:00 TS 21.9052 70.3081 main 0 0 _________PP___ -1 21.9775 70.3200 TC 30 21.8330 70.2961 1 6 332
1909245N15084 1909 45 NI AS NOT_NAMED 1909-09-07 12:00:00 TS 22.1776 70.2067 main 0 0 _________OP___ -1 22.3000 70.2000 TC 30 22.0553 70.2134 1 6 347
1909245N15084 1909 45 NI AS NOT_NAMED 1909-09-07 15:00:00 TS 22.4712 70.1637 main 0 0 _________PO___ -1 22.6425 70.1274 TC 30 22.3000 70.2000 1 7 351
1909245N15084 1909 45 NI AS NOT_NAMED 1909-09-07 18:00:00 TS 22.8166 70.0981 main 11 0 _________OP___ -1 23.0000 70.1000 TC 30 22.6332 70.0962 1 7 352
1909245N15084 1909 45 NI AS NOT_NAMED 1909-09-07 21:00:00 TS 23.1749 70.0576 main 0 0 _________PP___ -1 23.3575 70.0701 TC 30 22.9922 70.0451 1 7 359
1909245N15084 1909 45 NI AS NOT_NAMED 1909-09-08 00:00:00 TS 23.5276 70.0732 main 0 0 _________OP___ -1 23.7000 70.1000 TC 30 23.3551 70.0464 1 7 8
1909245N15084 1909 45 NI AS NOT_NAMED 1909-09-08 03:00:00 TS 23.8575 70.1637 main 0 0 _________PO___ -1 24.0150 70.2274 TC 30 23.7000 70.1000 1 7 18
1909245N15084 1909 45 NI AS NOT_NAMED 1909-09-08 06:00:00 TS 24.1503 70.2937 main 0 0 _________OP___ -1 24.3000 70.4000 TC 30 24.0006 70.1873 1 6 24
1909245N15084 1909 45 NI AS NOT_NAMED 1909-09-08 09:00:00 TS 24.4187 70.4337 main 0 0 _________PP___ -1 24.5575 70.5426 TC 30 24.2799 70.3249 1 6 28
1909245N15084 1909 45 NI AS NOT_NAMED 1909-09-08 12:00:00 TS 24.6722 70.6000 main 0 0 _________OP___ -1 24.8000 70.7000 TC 30 24.5443 70.5000 1 6 33
1909245N15084 1909 45 NI AS NOT_NAMED 1909-09-08 15:00:00 TS 24.9250 70.7925 main 0 0 _________PO___ -1 25.0500 70.8851 TC 30 24.8000 70.7000 1 6 36
1909245N15084 1909 45 NI AS NOT_NAMED 1909-09-08 18:00:00 TS 25.1585 70.9936 main 0 0 _________OP___ -1 25.3000 71.1000 TC 30 25.0523 70.9138 1 6 39
1909245N15084 1909 45 NI AS NOT_NAMED 1909-09-08 21:00:00 TS 25.4017 71.2190 main 0 0 _________PP___ -1 25.5501 71.3423 TC 30 25.3028 71.1369 1 6 41
1909245N15084 1909 45 NI AS NOT_NAMED 1909-09-09 00:00:00 TS 25.6346 71.4444 main 0 0 _________OP___ -1 25.8000 71.6000 TC 30 25.5518 71.3665 1 5 41
1909245N15084 1909 45 NI AS NOT_NAMED 1909-09-09 03:00:00 NR 25.8000 71.6000 main 0 __________O___ -1 TC 25.8000 71.6000 1 4 40

IBTrACS Databaseについて

本データベースは、米国NOAAが公開する1842年以降の世界の熱帯低気圧のベストトラックデータアーカイブInternational Best Track Archive for Climate Stewardship (IBTrACS)を、ウェブで閲覧しやすい形式に変換したものです。

最終更新日:2021-12-08